sensor_id;sensor_type;location;lat;lon;timestamp;P1;durP1;ratioP1;P2;durP2;ratioP2
16033;SDS011;8121;51.418;6.998;2022-12-19T00:05:06;23.63;;;9.30;;
16033;SDS011;8121;51.418;6.998;2022-12-19T00:15:08;20.90;;;10.13;;
16033;SDS011;8121;51.418;6.998;2022-12-19T00:25:11;17.37;;;8.50;;
16033;SDS011;8121;51.418;6.998;2022-12-19T00:35:12;20.90;;;10.80;;
16033;SDS011;8121;51.418;6.998;2022-12-19T00:56:01;19.37;;;8.90;;
16033;SDS011;8121;51.418;6.998;2022-12-19T01:06:03;12.97;;;7.67;;
16033;SDS011;8121;51.418;6.998;2022-12-19T01:16:08;18.10;;;8.73;;
16033;SDS011;8121;51.418;6.998;2022-12-19T01:26:12;24.20;;;9.60;;
16033;SDS011;8121;51.418;6.998;2022-12-19T01:36:15;19.90;;;8.47;;
16033;SDS011;8121;51.418;6.998;2022-12-19T01:46:16;27.83;;;11.50;;
16033;SDS011;8121;51.418;6.998;2022-12-19T01:56:21;12.70;;;6.40;;
16033;SDS011;8121;51.418;6.998;2022-12-19T02:06:24;22.03;;;9.07;;
16033;SDS011;8121;51.418;6.998;2022-12-19T02:16:30;10.23;;;6.40;;
16033;SDS011;8121;51.418;6.998;2022-12-19T02:26:45;11.07;;;6.07;;
16033;SDS011;8121;51.418;6.998;2022-12-19T02:36:54;15.93;;;7.20;;
16033;SDS011;8121;51.418;6.998;2022-12-19T02:46:59;11.50;;;6.00;;
16033;SDS011;8121;51.418;6.998;2022-12-19T02:57:04;11.43;;;6.30;;
16033;SDS011;8121;51.418;6.998;2022-12-19T03:07:12;12.93;;;6.90;;
16033;SDS011;8121;51.418;6.998;2022-12-19T03:17:20;13.10;;;7.70;;
16033;SDS011;8121;51.418;6.998;2022-12-19T03:27:23;15.07;;;8.77;;
16033;SDS011;8121;51.418;6.998;2022-12-19T03:37:30;18.10;;;7.77;;
16033;SDS011;8121;51.418;6.998;2022-12-19T03:47:34;18.50;;;8.60;;
16033;SDS011;8121;51.418;6.998;2022-12-19T03:57:40;15.90;;;8.53;;
16033;SDS011;8121;51.418;6.998;2022-12-19T04:07:43;21.03;;;10.03;;
16033;SDS011;8121;51.418;6.998;2022-12-19T04:17:47;15.83;;;7.40;;
16033;SDS011;8121;51.418;6.998;2022-12-19T04:27:52;16.40;;;7.67;;
16033;SDS011;8121;51.418;6.998;2022-12-19T04:37:59;16.20;;;7.70;;
16033;SDS011;8121;51.418;6.998;2022-12-19T04:48:00;17.63;;;8.63;;
16033;SDS011;8121;51.418;6.998;2022-12-19T04:58:04;22.30;;;10.03;;
16033;SDS011;8121;51.418;6.998;2022-12-19T05:08:06;16.23;;;8.20;;
16033;SDS011;8121;51.418;6.998;2022-12-19T05:18:08;20.23;;;9.87;;
16033;SDS011;8121;51.418;6.998;2022-12-19T05:28:10;10.10;;;6.20;;
16033;SDS011;8121;51.418;6.998;2022-12-19T05:38:14;18.73;;;9.40;;
16033;SDS011;8121;51.418;6.998;2022-12-19T05:48:15;16.87;;;9.00;;
16033;SDS011;8121;51.418;6.998;2022-12-19T05:58:18;16.70;;;7.60;;
16033;SDS011;8121;51.418;6.998;2022-12-19T06:08:20;17.17;;;8.60;;
16033;SDS011;8121;51.418;6.998;2022-12-19T06:18:22;14.40;;;8.70;;
16033;SDS011;8121;51.418;6.998;2022-12-19T06:28:24;13.20;;;6.70;;
16033;SDS011;8121;51.418;6.998;2022-12-19T06:38:28;13.30;;;6.40;;
16033;SDS011;8121;51.418;6.998;2022-12-19T06:48:30;10.63;;;5.90;;
16033;SDS011;8121;51.418;6.998;2022-12-19T06:58:33;7.47;;;5.27;;
16033;SDS011;8121;51.418;6.998;2022-12-19T07:08:34;12.70;;;7.03;;
16033;SDS011;8121;51.418;6.998;2022-12-19T07:18:37;14.07;;;7.17;;
16033;SDS011;8121;51.418;6.998;2022-12-19T07:28:40;11.23;;;7.17;;
16033;SDS011;8121;51.418;6.998;2022-12-19T07:38:44;11.57;;;7.33;;
16033;SDS011;8121;51.418;6.998;2022-12-19T07:48:46;7.50;;;4.63;;
16033;SDS011;8121;51.418;6.998;2022-12-19T07:58:49;13.80;;;6.37;;
16033;SDS011;8121;51.418;6.998;2022-12-19T08:08:51;13.43;;;6.77;;
16033;SDS011;8121;51.418;6.998;2022-12-19T08:18:53;11.63;;;6.53;;
16033;SDS011;8121;51.418;6.998;2022-12-19T08:28:56;10.43;;;6.70;;
16033;SDS011;8121;51.418;6.998;2022-12-19T08:38:59;10.40;;;5.53;;
16033;SDS011;8121;51.418;6.998;2022-12-19T08:49:01;18.03;;;8.00;;
16033;SDS011;8121;51.418;6.998;2022-12-19T08:59:04;10.53;;;6.53;;
16033;SDS011;8121;51.418;6.998;2022-12-19T09:09:05;12.87;;;6.73;;
16033;SDS011;8121;51.418;6.998;2022-12-19T09:19:08;15.67;;;7.00;;
16033;SDS011;8121;51.418;6.998;2022-12-19T09:29:14;10.00;;;5.80;;
16033;SDS011;8121;51.418;6.998;2022-12-19T09:39:17;9.20;;;4.53;;
16033;SDS011;8121;51.418;6.998;2022-12-19T09:49:20;8.83;;;5.80;;
16033;SDS011;8121;51.418;6.998;2022-12-19T09:59:25;7.10;;;5.17;;
16033;SDS011;8121;51.418;6.998;2022-12-19T10:09:35;7.83;;;4.93;;
16033;SDS011;8121;51.418;6.998;2022-12-19T10:19:45;9.37;;;5.83;;
16033;SDS011;8121;51.418;6.998;2022-12-19T10:29:54;9.33;;;4.00;;
16033;SDS011;8121;51.418;6.998;2022-12-19T10:40:08;9.40;;;5.73;;
16033;SDS011;8121;51.418;6.998;2022-12-19T10:50:13;9.57;;;6.07;;
16033;SDS011;8121;51.418;6.998;2022-12-19T11:00:19;6.50;;;4.47;;
16033;SDS011;8121;51.418;6.998;2022-12-19T11:10:32;13.30;;;5.60;;
16033;SDS011;8121;51.418;6.998;2022-12-19T11:20:37;6.30;;;4.70;;
16033;SDS011;8121;51.418;6.998;2022-12-19T11:30:38;8.00;;;5.10;;
16033;SDS011;8121;51.418;6.998;2022-12-19T11:40:42;4.80;;;3.60;;
16033;SDS011;8121;51.418;6.998;2022-12-19T11:50:49;6.50;;;3.50;;
16033;SDS011;8121;51.418;6.998;2022-12-19T12:01:01;7.70;;;5.00;;
16033;SDS011;8121;51.418;6.998;2022-12-19T12:11:12;8.57;;;4.93;;
16033;SDS011;8121;51.418;6.998;2022-12-19T12:21:27;5.63;;;4.07;;
16033;SDS011;8121;51.418;6.998;2022-12-19T12:31:44;6.00;;;3.93;;
16033;SDS011;8121;51.418;6.998;2022-12-19T12:41:54;3.83;;;3.43;;
16033;SDS011;8121;51.418;6.998;2022-12-19T12:52:06;7.23;;;4.03;;
16033;SDS011;8121;51.418;6.998;2022-12-19T13:02:12;3.20;;;2.90;;
16033;SDS011;8121;51.418;6.998;2022-12-19T13:12:23;7.07;;;4.23;;
16033;SDS011;8121;51.418;6.998;2022-12-19T13:23:00;8.60;;;3.10;;
16033;SDS011;8121;51.418;6.998;2022-12-19T13:33:08;5.43;;;2.60;;
16033;SDS011;8121;51.418;6.998;2022-12-19T13:43:12;5.20;;;3.30;;
16033;SDS011;8121;51.418;6.998;2022-12-19T13:53:35;6.90;;;4.50;;
16033;SDS011;8121;51.418;6.998;2022-12-19T14:03:39;3.70;;;3.20;;
16033;SDS011;8121;51.418;6.998;2022-12-19T14:13:43;3.63;;;3.20;;
16033;SDS011;8121;51.418;6.998;2022-12-19T14:24:10;3.50;;;3.03;;
16033;SDS011;8121;51.418;6.998;2022-12-19T14:34:15;10.17;;;3.77;;
16033;SDS011;8121;51.418;6.998;2022-12-19T14:44:20;5.13;;;4.00;;
16033;SDS011;8121;51.418;6.998;2022-12-19T14:54:22;7.73;;;3.50;;
16033;SDS011;8121;51.418;6.998;2022-12-19T15:04:26;4.17;;;2.90;;
16033;SDS011;8121;51.418;6.998;2022-12-19T15:14:31;4.33;;;2.77;;
16033;SDS011;8121;51.418;6.998;2022-12-19T15:24:46;5.73;;;3.30;;
16033;SDS011;8121;51.418;6.998;2022-12-19T15:34:57;3.23;;;2.67;;
16033;SDS011;8121;51.418;6.998;2022-12-19T15:45:00;4.10;;;3.00;;
16033;SDS011;8121;51.418;6.998;2022-12-19T15:55:02;6.73;;;2.70;;
16033;SDS011;8121;51.418;6.998;2022-12-19T16:05:05;4.07;;;2.43;;
16033;SDS011;8121;51.418;6.998;2022-12-19T16:15:12;8.17;;;3.17;;
16033;SDS011;8121;51.418;6.998;2022-12-19T16:25:16;5.93;;;3.53;;
16033;SDS011;8121;51.418;6.998;2022-12-19T16:35:19;5.37;;;3.20;;
16033;SDS011;8121;51.418;6.998;2022-12-19T16:45:24;15.53;;;3.70;;
16033;SDS011;8121;51.418;6.998;2022-12-19T16:55:26;2.83;;;2.30;;
16033;SDS011;8121;51.418;6.998;2022-12-19T17:05:30;3.40;;;3.10;;
16033;SDS011;8121;51.418;6.998;2022-12-19T17:15:32;2.80;;;2.60;;
16033;SDS011;8121;51.418;6.998;2022-12-19T17:25:37;3.83;;;2.93;;
16033;SDS011;8121;51.418;6.998;2022-12-19T17:35:38;4.63;;;3.07;;
16033;SDS011;8121;51.418;6.998;2022-12-19T17:45:41;3.83;;;3.07;;
16033;SDS011;8121;51.418;6.998;2022-12-19T17:55:43;4.70;;;2.10;;
16033;SDS011;8121;51.418;6.998;2022-12-19T18:05:46;2.57;;;2.37;;
16033;SDS011;8121;51.418;6.998;2022-12-19T18:15:49;5.57;;;3.43;;
16033;SDS011;8121;51.418;6.998;2022-12-19T18:25:53;2.47;;;2.20;;
16033;SDS011;8121;51.418;6.998;2022-12-19T18:35:54;2.70;;;1.87;;
16033;SDS011;8121;51.418;6.998;2022-12-19T18:45:57;5.13;;;2.83;;
16033;SDS011;8121;51.418;6.998;2022-12-19T18:55:59;2.80;;;2.60;;
16033;SDS011;8121;51.418;6.998;2022-12-19T19:06:02;4.80;;;2.57;;
16033;SDS011;8121;51.418;6.998;2022-12-19T19:16:09;2.13;;;1.93;;
16033;SDS011;8121;51.418;6.998;2022-12-19T19:26:17;2.10;;;2.00;;
16033;SDS011;8121;51.418;6.998;2022-12-19T19:36:19;4.70;;;3.30;;
16033;SDS011;8121;51.418;6.998;2022-12-19T19:46:26;3.03;;;2.30;;
16033;SDS011;8121;51.418;6.998;2022-12-19T19:56:27;7.40;;;2.77;;
16033;SDS011;8121;51.418;6.998;2022-12-19T20:06:33;6.20;;;3.07;;
16033;SDS011;8121;51.418;6.998;2022-12-19T20:16:35;3.03;;;1.90;;
16033;SDS011;8121;51.418;6.998;2022-12-19T20:26:39;1.77;;;1.63;;
16033;SDS011;8121;51.418;6.998;2022-12-19T20:36:40;2.47;;;2.27;;
16033;SDS011;8121;51.418;6.998;2022-12-19T20:46:43;2.70;;;2.40;;
16033;SDS011;8121;51.418;6.998;2022-12-19T20:56:45;2.03;;;1.77;;
16033;SDS011;8121;51.418;6.998;2022-12-19T21:06:50;2.23;;;1.70;;
16033;SDS011;8121;51.418;6.998;2022-12-19T21:16:53;2.80;;;1.20;;
16033;SDS011;8121;51.418;6.998;2022-12-19T21:26:55;2.57;;;2.10;;
16033;SDS011;8121;51.418;6.998;2022-12-19T21:36:57;2.57;;;1.80;;
16033;SDS011;8121;51.418;6.998;2022-12-19T21:47:00;1.60;;;1.50;;
16033;SDS011;8121;51.418;6.998;2022-12-19T21:57:01;2.20;;;1.67;;
16033;SDS011;8121;51.418;6.998;2022-12-19T22:07:05;1.70;;;1.60;;
16033;SDS011;8121;51.418;6.998;2022-12-19T22:17:07;2.13;;;1.93;;
16033;SDS011;8121;51.418;6.998;2022-12-19T22:27:10;3.93;;;1.30;;
16033;SDS011;8121;51.418;6.998;2022-12-19T22:37:11;2.87;;;1.77;;
16033;SDS011;8121;51.418;6.998;2022-12-19T22:47:14;2.77;;;1.77;;
16033;SDS011;8121;51.418;6.998;2022-12-19T22:57:16;1.23;;;1.13;;
16033;SDS011;8121;51.418;6.998;2022-12-19T23:07:19;1.73;;;1.63;;
16033;SDS011;8121;51.418;6.998;2022-12-19T23:17:20;1.93;;;1.43;;
16033;SDS011;8121;51.418;6.998;2022-12-19T23:27:23;1.90;;;1.80;;
16033;SDS011;8121;51.418;6.998;2022-12-19T23:37:25;2.93;;;1.73;;
16033;SDS011;8121;51.418;6.998;2022-12-19T23:47:28;3.00;;;1.67;;
16033;SDS011;8121;51.418;6.998;2022-12-19T23:57:29;2.23;;;1.10;;
